sensor_id;sensor_type;location;lat;lon;timestamp;P1;durP1;ratioP1;P2;durP2;ratioP2
11490;SDS011;5802;52.832;4.758;2024-02-21T00:01:26;3.75;;;1.52;;
11490;SDS011;5802;52.832;4.758;2024-02-21T00:03:53;3.90;;;1.63;;
11490;SDS011;5802;52.832;4.758;2024-02-21T00:06:20;5.00;;;1.52;;
11490;SDS011;5802;52.832;4.758;2024-02-21T00:08:48;2.95;;;1.42;;
11490;SDS011;5802;52.832;4.758;2024-02-21T00:11:15;3.45;;;1.42;;
11490;SDS011;5802;52.832;4.758;2024-02-21T00:13:42;4.53;;;1.88;;
11490;SDS011;5802;52.832;4.758;2024-02-21T00:16:09;4.78;;;1.40;;
11490;SDS011;5802;52.832;4.758;2024-02-21T00:18:36;3.85;;;1.60;;
11490;SDS011;5802;52.832;4.758;2024-02-21T00:21:03;5.35;;;1.90;;
11490;SDS011;5802;52.832;4.758;2024-02-21T00:23:30;5.32;;;1.40;;
11490;SDS011;5802;52.832;4.758;2024-02-21T00:25:58;5.10;;;1.88;;
11490;SDS011;5802;52.832;4.758;2024-02-21T00:28:25;4.15;;;1.80;;
11490;SDS011;5802;52.832;4.758;2024-02-21T00:30:52;3.42;;;1.52;;
11490;SDS011;5802;52.832;4.758;2024-02-21T00:33:19;5.05;;;1.63;;
11490;SDS011;5802;52.832;4.758;2024-02-21T00:35:46;4.07;;;1.50;;
11490;SDS011;5802;52.832;4.758;2024-02-21T00:38:13;5.28;;;1.38;;
11490;SDS011;5802;52.832;4.758;2024-02-21T00:40:40;4.75;;;1.67;;
11490;SDS011;5802;52.832;4.758;2024-02-21T00:43:09;2.85;;;1.27;;
11490;SDS011;5802;52.832;4.758;2024-02-21T00:45:36;4.88;;;1.65;;
11490;SDS011;5802;52.832;4.758;2024-02-21T00:48:03;3.58;;;2.03;;
11490;SDS011;5802;52.832;4.758;2024-02-21T00:50:31;3.70;;;1.48;;
11490;SDS011;5802;52.832;4.758;2024-02-21T00:52:57;3.67;;;1.50;;
11490;SDS011;5802;52.832;4.758;2024-02-21T00:55:24;4.00;;;1.67;;
11490;SDS011;5802;52.832;4.758;2024-02-21T00:57:53;2.78;;;1.40;;
11490;SDS011;5802;52.832;4.758;2024-02-21T01:00:22;3.83;;;1.30;;
11490;SDS011;5802;52.832;4.758;2024-02-21T01:02:49;3.75;;;1.38;;
11490;SDS011;5802;52.832;4.758;2024-02-21T01:05:15;3.60;;;1.83;;
11490;SDS011;5802;52.832;4.758;2024-02-21T01:07:42;5.85;;;1.40;;
11490;SDS011;5802;52.832;4.758;2024-02-21T01:10:09;4.35;;;1.88;;
11490;SDS011;5802;52.832;4.758;2024-02-21T01:12:36;5.10;;;1.77;;
11490;SDS011;5802;52.832;4.758;2024-02-21T01:15:03;6.43;;;1.85;;
11490;SDS011;5802;52.832;4.758;2024-02-21T01:17:32;4.55;;;1.38;;
11490;SDS011;5802;52.832;4.758;2024-02-21T01:19:59;3.95;;;1.70;;
11490;SDS011;5802;52.832;4.758;2024-02-21T01:22:26;4.40;;;1.50;;
11490;SDS011;5802;52.832;4.758;2024-02-21T01:24:53;4.80;;;1.60;;
11490;SDS011;5802;52.832;4.758;2024-02-21T01:27:20;4.80;;;1.52;;
11490;SDS011;5802;52.832;4.758;2024-02-21T01:29:47;5.65;;;1.70;;
11490;SDS011;5802;52.832;4.758;2024-02-21T01:32:14;5.57;;;1.80;;
11490;SDS011;5802;52.832;4.758;2024-02-21T01:34:43;3.75;;;1.45;;
11490;SDS011;5802;52.832;4.758;2024-02-21T01:37:09;5.43;;;1.60;;
11490;SDS011;5802;52.832;4.758;2024-02-21T01:39:36;3.38;;;1.60;;
11490;SDS011;5802;52.832;4.758;2024-02-21T01:42:03;3.05;;;1.58;;
11490;SDS011;5802;52.832;4.758;2024-02-21T01:44:31;4.82;;;1.60;;
11490;SDS011;5802;52.832;4.758;2024-02-21T01:46:58;5.47;;;1.75;;
11490;SDS011;5802;52.832;4.758;2024-02-21T01:49:25;4.05;;;1.60;;
11490;SDS011;5802;52.832;4.758;2024-02-21T01:51:53;3.47;;;1.40;;
11490;SDS011;5802;52.832;4.758;2024-02-21T01:54:21;3.38;;;1.40;;
11490;SDS011;5802;52.832;4.758;2024-02-21T01:56:48;2.67;;;1.45;;
11490;SDS011;5802;52.832;4.758;2024-02-21T01:59:16;3.60;;;1.60;;
11490;SDS011;5802;52.832;4.758;2024-02-21T02:01:44;4.85;;;1.60;;
11490;SDS011;5802;52.832;4.758;2024-02-21T02:04:13;2.95;;;1.50;;
11490;SDS011;5802;52.832;4.758;2024-02-21T02:06:40;4.47;;;1.80;;
11490;SDS011;5802;52.832;4.758;2024-02-21T02:09:08;2.92;;;1.50;;
11490;SDS011;5802;52.832;4.758;2024-02-21T02:11:35;2.90;;;1.42;;
11490;SDS011;5802;52.832;4.758;2024-02-21T02:14:03;4.03;;;1.50;;
11490;SDS011;5802;52.832;4.758;2024-02-21T02:16:29;3.92;;;1.85;;
11490;SDS011;5802;52.832;4.758;2024-02-21T02:18:56;6.18;;;1.92;;
11490;SDS011;5802;52.832;4.758;2024-02-21T02:21:26;5.60;;;1.73;;
11490;SDS011;5802;52.832;4.758;2024-02-21T02:23:57;5.57;;;1.92;;
11490;SDS011;5802;52.832;4.758;2024-02-21T02:26:25;4.45;;;1.70;;
11490;SDS011;5802;52.832;4.758;2024-02-21T02:28:55;4.82;;;1.70;;
11490;SDS011;5802;52.832;4.758;2024-02-21T02:31:22;4.45;;;1.60;;
11490;SDS011;5802;52.832;4.758;2024-02-21T02:33:49;5.43;;;1.85;;
11490;SDS011;5802;52.832;4.758;2024-02-21T02:36:15;5.22;;;1.65;;
11490;SDS011;5802;52.832;4.758;2024-02-21T02:38:42;4.22;;;1.60;;
11490;SDS011;5802;52.832;4.758;2024-02-21T02:41:11;3.95;;;1.73;;
11490;SDS011;5802;52.832;4.758;2024-02-21T02:43:38;4.72;;;1.40;;
11490;SDS011;5802;52.832;4.758;2024-02-21T02:46:05;3.60;;;1.40;;
11490;SDS011;5802;52.832;4.758;2024-02-21T02:48:32;4.80;;;1.48;;
11490;SDS011;5802;52.832;4.758;2024-02-21T02:50:58;6.60;;;1.70;;
11490;SDS011;5802;52.832;4.758;2024-02-21T02:53:26;3.78;;;1.67;;
11490;SDS011;5802;52.832;4.758;2024-02-21T02:55:52;3.90;;;1.35;;
11490;SDS011;5802;52.832;4.758;2024-02-21T02:58:21;4.43;;;1.63;;
11490;SDS011;5802;52.832;4.758;2024-02-21T03:00:48;4.43;;;1.73;;
11490;SDS011;5802;52.832;4.758;2024-02-21T03:03:14;4.85;;;1.35;;
11490;SDS011;5802;52.832;4.758;2024-02-21T03:05:41;5.32;;;1.75;;
11490;SDS011;5802;52.832;4.758;2024-02-21T03:08:08;3.42;;;1.60;;
11490;SDS011;5802;52.832;4.758;2024-02-21T03:10:35;4.63;;;1.85;;
11490;SDS011;5802;52.832;4.758;2024-02-21T03:13:02;5.63;;;1.52;;
11490;SDS011;5802;52.832;4.758;2024-02-21T03:15:31;4.53;;;1.50;;
11490;SDS011;5802;52.832;4.758;2024-02-21T03:17:58;2.70;;;1.20;;
11490;SDS011;5802;52.832;4.758;2024-02-21T03:20:25;5.40;;;1.73;;
11490;SDS011;5802;52.832;4.758;2024-02-21T03:22:52;2.90;;;1.50;;
11490;SDS011;5802;52.832;4.758;2024-02-21T03:25:18;4.18;;;1.80;;
11490;SDS011;5802;52.832;4.758;2024-02-21T03:27:45;4.05;;;1.42;;
11490;SDS011;5802;52.832;4.758;2024-02-21T03:30:12;4.60;;;1.63;;
11490;SDS011;5802;52.832;4.758;2024-02-21T03:32:41;4.20;;;1.50;;
11490;SDS011;5802;52.832;4.758;2024-02-21T03:35:08;4.55;;;1.58;;
11490;SDS011;5802;52.832;4.758;2024-02-21T03:37:34;3.55;;;1.60;;
11490;SDS011;5802;52.832;4.758;2024-02-21T03:40:01;3.45;;;1.42;;
11490;SDS011;5802;52.832;4.758;2024-02-21T03:42:28;4.85;;;1.77;;
11490;SDS011;5802;52.832;4.758;2024-02-21T03:44:56;3.17;;;1.33;;
11490;SDS011;5802;52.832;4.758;2024-02-21T03:47:23;3.28;;;1.38;;
11490;SDS011;5802;52.832;4.758;2024-02-21T03:49:51;4.43;;;1.52;;
11490;SDS011;5802;52.832;4.758;2024-02-21T03:52:18;4.90;;;1.63;;
11490;SDS011;5802;52.832;4.758;2024-02-21T03:54:45;4.72;;;1.70;;
11490;SDS011;5802;52.832;4.758;2024-02-21T03:57:12;3.22;;;1.23;;
11490;SDS011;5802;52.832;4.758;2024-02-21T03:59:39;4.40;;;1.70;;
11490;SDS011;5802;52.832;4.758;2024-02-21T04:02:06;2.85;;;1.35;;
11490;SDS011;5802;52.832;4.758;2024-02-21T04:04:34;3.10;;;1.38;;
11490;SDS011;5802;52.832;4.758;2024-02-21T04:07:03;2.90;;;1.40;;
11490;SDS011;5802;52.832;4.758;2024-02-21T04:09:31;3.28;;;1.50;;
11490;SDS011;5802;52.832;4.758;2024-02-21T04:11:58;3.22;;;1.50;;
11490;SDS011;5802;52.832;4.758;2024-02-21T04:14:25;4.10;;;1.58;;
11490;SDS011;5802;52.832;4.758;2024-02-21T04:16:52;4.38;;;1.35;;
11490;SDS011;5802;52.832;4.758;2024-02-21T04:19:19;4.22;;;1.50;;
11490;SDS011;5802;52.832;4.758;2024-02-21T04:21:46;3.88;;;1.60;;
11490;SDS011;5802;52.832;4.758;2024-02-21T04:24:14;3.38;;;1.25;;
11490;SDS011;5802;52.832;4.758;2024-02-21T04:26:41;3.42;;;1.50;;
11490;SDS011;5802;52.832;4.758;2024-02-21T04:29:08;3.45;;;1.45;;
11490;SDS011;5802;52.832;4.758;2024-02-21T04:31:35;4.63;;;1.60;;
11490;SDS011;5802;52.832;4.758;2024-02-21T04:34:02;3.40;;;1.67;;
11490;SDS011;5802;52.832;4.758;2024-02-21T04:36:29;2.80;;;1.50;;
11490;SDS011;5802;52.832;4.758;2024-02-21T04:38:56;5.20;;;2.00;;
11490;SDS011;5802;52.832;4.758;2024-02-21T04:41:24;4.15;;;1.52;;
11490;SDS011;5802;52.832;4.758;2024-02-21T04:43:51;3.88;;;1.65;;
11490;SDS011;5802;52.832;4.758;2024-02-21T04:46:18;4.13;;;1.55;;
11490;SDS011;5802;52.832;4.758;2024-02-21T04:48:45;2.95;;;1.45;;
11490;SDS011;5802;52.832;4.758;2024-02-21T04:51:11;3.60;;;1.50;;
11490;SDS011;5802;52.832;4.758;2024-02-21T04:53:38;4.82;;;1.55;;
11490;SDS011;5802;52.832;4.758;2024-02-21T04:56:06;3.10;;;1.55;;
11490;SDS011;5802;52.832;4.758;2024-02-21T04:58:37;4.10;;;1.30;;
11490;SDS011;5802;52.832;4.758;2024-02-21T05:01:04;3.50;;;1.60;;
11490;SDS011;5802;52.832;4.758;2024-02-21T05:03:31;2.80;;;1.30;;
11490;SDS011;5802;52.832;4.758;2024-02-21T05:05:58;2.92;;;1.30;;
11490;SDS011;5802;52.832;4.758;2024-02-21T05:08:25;5.05;;;1.45;;
11490;SDS011;5802;52.832;4.758;2024-02-21T05:10:52;3.85;;;1.30;;
11490;SDS011;5802;52.832;4.758;2024-02-21T05:13:19;3.03;;;1.35;;
11490;SDS011;5802;52.832;4.758;2024-02-21T05:15:47;3.22;;;1.35;;
11490;SDS011;5802;52.832;4.758;2024-02-21T05:18:14;2.30;;;1.08;;
11490;SDS011;5802;52.832;4.758;2024-02-21T05:20:41;4.28;;;1.52;;
11490;SDS011;5802;52.832;4.758;2024-02-21T05:23:08;3.63;;;1.60;;
11490;SDS011;5802;52.832;4.758;2024-02-21T05:25:35;5.03;;;1.42;;
11490;SDS011;5802;52.832;4.758;2024-02-21T05:28:02;3.75;;;1.23;;
11490;SDS011;5802;52.832;4.758;2024-02-21T05:30:31;4.05;;;1.95;;
11490;SDS011;5802;52.832;4.758;2024-02-21T05:33:03;2.85;;;1.45;;
11490;SDS011;5802;52.832;4.758;2024-02-21T05:35:30;2.65;;;1.13;;
11490;SDS011;5802;52.832;4.758;2024-02-21T05:37:57;3.70;;;1.52;;
11490;SDS011;5802;52.832;4.758;2024-02-21T05:40:24;6.15;;;1.33;;
11490;SDS011;5802;52.832;4.758;2024-02-21T05:42:51;2.83;;;1.25;;
11490;SDS011;5802;52.832;4.758;2024-02-21T05:45:18;3.53;;;1.42;;
11490;SDS011;5802;52.832;4.758;2024-02-21T05:47:47;3.88;;;1.30;;
11490;SDS011;5802;52.832;4.758;2024-02-21T05:50:15;4.43;;;1.40;;
11490;SDS011;5802;52.832;4.758;2024-02-21T05:52:42;3.13;;;1.40;;
11490;SDS011;5802;52.832;4.758;2024-02-21T05:55:09;2.55;;;1.20;;
11490;SDS011;5802;52.832;4.758;2024-02-21T05:57:36;4.43;;;1.40;;
11490;SDS011;5802;52.832;4.758;2024-02-21T06:00:03;2.90;;;1.25;;
11490;SDS011;5802;52.832;4.758;2024-02-21T06:02:31;4.28;;;1.40;;
11490;SDS011;5802;52.832;4.758;2024-02-21T06:04:58;4.32;;;1.50;;
11490;SDS011;5802;52.832;4.758;2024-02-21T06:07:26;4.28;;;1.33;;
11490;SDS011;5802;52.832;4.758;2024-02-21T06:09:53;5.15;;;1.48;;
11490;SDS011;5802;52.832;4.758;2024-02-21T06:12:20;6.38;;;1.33;;
11490;SDS011;5802;52.832;4.758;2024-02-21T06:14:47;4.90;;;1.42;;
11490;SDS011;5802;52.832;4.758;2024-02-21T06:17:14;4.63;;;1.65;;
11490;SDS011;5802;52.832;4.758;2024-02-21T06:19:42;3.15;;;1.40;;
11490;SDS011;5802;52.832;4.758;2024-02-21T06:22:09;3.88;;;1.45;;
11490;SDS011;5802;52.832;4.758;2024-02-21T06:24:38;3.17;;;1.45;;
11490;SDS011;5802;52.832;4.758;2024-02-21T06:27:05;3.47;;;1.45;;
11490;SDS011;5802;52.832;4.758;2024-02-21T06:29:32;2.08;;;1.20;;
11490;SDS011;5802;52.832;4.758;2024-02-21T06:31:59;2.75;;;1.42;;
11490;SDS011;5802;52.832;4.758;2024-02-21T06:34:26;3.22;;;1.30;;
11490;SDS011;5802;52.832;4.758;2024-02-21T06:36:53;3.03;;;1.40;;
11490;SDS011;5802;52.832;4.758;2024-02-21T06:39:20;4.43;;;1.55;;
11490;SDS011;5802;52.832;4.758;2024-02-21T06:41:49;4.65;;;1.58;;
11490;SDS011;5802;52.832;4.758;2024-02-21T06:44:17;5.18;;;1.90;;
11490;SDS011;5802;52.832;4.758;2024-02-21T06:46:44;3.47;;;1.42;;
11490;SDS011;5802;52.832;4.758;2024-02-21T06:49:11;2.83;;;1.20;;
11490;SDS011;5802;52.832;4.758;2024-02-21T06:51:41;5.22;;;1.48;;
11490;SDS011;5802;52.832;4.758;2024-02-21T06:54:08;2.58;;;0.90;;
11490;SDS011;5802;52.832;4.758;2024-02-21T06:56:35;4.78;;;1.45;;
11490;SDS011;5802;52.832;4.758;2024-02-21T06:59:04;3.67;;;1.70;;
11490;SDS011;5802;52.832;4.758;2024-02-21T07:01:31;3.58;;;1.42;;
11490;SDS011;5802;52.832;4.758;2024-02-21T07:03:58;4.28;;;1.27;;
11490;SDS011;5802;52.832;4.758;2024-02-21T07:06:25;3.55;;;1.48;;
11490;SDS011;5802;52.832;4.758;2024-02-21T07:08:52;4.40;;;1.83;;
11490;SDS011;5802;52.832;4.758;2024-02-21T07:11:19;3.30;;;1.33;;
11490;SDS011;5802;52.832;4.758;2024-02-21T07:13:46;4.50;;;1.48;;
11490;SDS011;5802;52.832;4.758;2024-02-21T07:16:14;4.30;;;1.33;;
11490;SDS011;5802;52.832;4.758;2024-02-21T07:18:41;3.92;;;1.55;;
11490;SDS011;5802;52.832;4.758;2024-02-21T07:21:08;2.95;;;1.40;;
11490;SDS011;5802;52.832;4.758;2024-02-21T07:23:34;4.68;;;1.35;;
11490;SDS011;5802;52.832;4.758;2024-02-21T07:26:01;3.28;;;1.30;;
11490;SDS011;5802;52.832;4.758;2024-02-21T07:28:29;3.88;;;1.50;;
11490;SDS011;5802;52.832;4.758;2024-02-21T07:30:55;3.70;;;1.27;;
11490;SDS011;5802;52.832;4.758;2024-02-21T07:33:24;2.80;;;1.35;;
11490;SDS011;5802;52.832;4.758;2024-02-21T07:35:50;3.20;;;1.33;;
11490;SDS011;5802;52.832;4.758;2024-02-21T07:38:17;4.90;;;1.35;;
11490;SDS011;5802;52.832;4.758;2024-02-21T07:40:45;2.25;;;1.27;;
11490;SDS011;5802;52.832;4.758;2024-02-21T07:43:11;4.35;;;1.10;;
11490;SDS011;5802;52.832;4.758;2024-02-21T07:45:38;4.07;;;1.02;;
11490;SDS011;5802;52.832;4.758;2024-02-21T07:48:05;4.50;;;1.60;;
11490;SDS011;5802;52.832;4.758;2024-02-21T07:50:34;4.22;;;1.40;;
11490;SDS011;5802;52.832;4.758;2024-02-21T07:53:01;2.85;;;1.20;;
11490;SDS011;5802;52.832;4.758;2024-02-21T07:55:28;3.03;;;1.30;;
11490;SDS011;5802;52.832;4.758;2024-02-21T07:57:54;2.47;;;1.38;;
11490;SDS011;5802;52.832;4.758;2024-02-21T08:00:21;2.17;;;1.20;;
11490;SDS011;5802;52.832;4.758;2024-02-21T08:02:48;3.17;;;1.65;;
11490;SDS011;5802;52.832;4.758;2024-02-21T08:05:15;4.13;;;1.55;;
11490;SDS011;5802;52.832;4.758;2024-02-21T08:07:44;3.65;;;1.55;;
11490;SDS011;5802;52.832;4.758;2024-02-21T08:10:11;3.63;;;1.60;;
11490;SDS011;5802;52.832;4.758;2024-02-21T08:12:38;2.83;;;1.55;;
11490;SDS011;5802;52.832;4.758;2024-02-21T08:15:05;3.53;;;1.80;;
11490;SDS011;5802;52.832;4.758;2024-02-21T08:17:33;6.18;;;2.10;;
11490;SDS011;5802;52.832;4.758;2024-02-21T08:20:00;5.75;;;1.75;;
11490;SDS011;5802;52.832;4.758;2024-02-21T08:22:27;7.65;;;1.60;;
11490;SDS011;5802;52.832;4.758;2024-02-21T08:24:56;6.07;;;1.83;;
11490;SDS011;5802;52.832;4.758;2024-02-21T08:27:23;6.68;;;1.30;;
11490;SDS011;5802;52.832;4.758;2024-02-21T08:29:50;11.32;;;1.70;;
11490;SDS011;5802;52.832;4.758;2024-02-21T08:32:17;5.00;;;1.60;;
11490;SDS011;5802;52.832;4.758;2024-02-21T08:34:44;8.10;;;1.98;;
11490;SDS011;5802;52.832;4.758;2024-02-21T08:37:10;7.53;;;2.15;;
11490;SDS011;5802;52.832;4.758;2024-02-21T08:39:37;2.72;;;1.40;;
11490;SDS011;5802;52.832;4.758;2024-02-21T08:42:06;8.32;;;1.67;;
11490;SDS011;5802;52.832;4.758;2024-02-21T08:44:33;7.35;;;1.63;;
11490;SDS011;5802;52.832;4.758;2024-02-21T08:47:00;7.47;;;1.55;;
11490;SDS011;5802;52.832;4.758;2024-02-21T08:49:28;5.82;;;1.75;;
11490;SDS011;5802;52.832;4.758;2024-02-21T08:51:56;10.32;;;1.73;;
11490;SDS011;5802;52.832;4.758;2024-02-21T08:54:23;6.28;;;1.83;;
11490;SDS011;5802;52.832;4.758;2024-02-21T08:56:50;7.15;;;1.70;;
11490;SDS011;5802;52.832;4.758;2024-02-21T08:59:18;4.50;;;1.50;;
11490;SDS011;5802;52.832;4.758;2024-02-21T09:01:45;8.05;;;1.70;;
11490;SDS011;5802;52.832;4.758;2024-02-21T09:04:12;12.30;;;1.83;;
11490;SDS011;5802;52.832;4.758;2024-02-21T09:06:39;6.80;;;1.77;;
11490;SDS011;5802;52.832;4.758;2024-02-21T09:09:07;6.45;;;1.70;;
11490;SDS011;5802;52.832;4.758;2024-02-21T09:11:35;8.75;;;1.80;;
11490;SDS011;5802;52.832;4.758;2024-02-21T09:14:02;10.57;;;1.80;;
11490;SDS011;5802;52.832;4.758;2024-02-21T09:16:31;5.53;;;1.63;;
11490;SDS011;5802;52.832;4.758;2024-02-21T09:18:58;4.68;;;1.67;;
11490;SDS011;5802;52.832;4.758;2024-02-21T09:21:25;6.47;;;1.90;;
11490;SDS011;5802;52.832;4.758;2024-02-21T09:23:53;5.53;;;1.60;;
11490;SDS011;5802;52.832;4.758;2024-02-21T09:26:20;3.78;;;1.80;;
11490;SDS011;5802;52.832;4.758;2024-02-21T09:28:46;3.92;;;1.50;;
11490;SDS011;5802;52.832;4.758;2024-02-21T09:31:13;3.65;;;1.67;;
11490;SDS011;5802;52.832;4.758;2024-02-21T09:33:41;6.72;;;1.67;;
11490;SDS011;5802;52.832;4.758;2024-02-21T09:36:08;4.43;;;1.70;;
11490;SDS011;5802;52.832;4.758;2024-02-21T09:38:35;5.10;;;1.60;;
11490;SDS011;5802;52.832;4.758;2024-02-21T09:41:04;2.50;;;1.33;;
11490;SDS011;5802;52.832;4.758;2024-02-21T09:43:40;3.95;;;1.73;;
11490;SDS011;5802;52.832;4.758;2024-02-21T09:46:08;2.33;;;1.50;;
11490;SDS011;5802;52.832;4.758;2024-02-21T09:48:45;4.25;;;1.50;;
11490;SDS011;5802;52.832;4.758;2024-02-21T09:51:26;7.18;;;2.40;;
11490;SDS011;5802;52.832;4.758;2024-02-21T09:53:55;7.25;;;1.92;;
11490;SDS011;5802;52.832;4.758;2024-02-21T09:56:23;6.40;;;1.90;;
11490;SDS011;5802;52.832;4.758;2024-02-21T09:58:50;8.52;;;2.05;;
11490;SDS011;5802;52.832;4.758;2024-02-21T10:01:17;2.45;;;1.80;;
11490;SDS011;5802;52.832;4.758;2024-02-21T10:03:45;3.25;;;1.80;;
11490;SDS011;5802;52.832;4.758;2024-02-21T10:06:13;2.67;;;1.90;;
11490;SDS011;5802;52.832;4.758;2024-02-21T10:08:41;5.25;;;2.05;;
11490;SDS011;5802;52.832;4.758;2024-02-21T10:11:08;5.95;;;1.90;;
11490;SDS011;5802;52.832;4.758;2024-02-21T10:13:35;4.15;;;1.90;;
11490;SDS011;5802;52.832;4.758;2024-02-21T10:16:03;2.10;;;1.65;;
11490;SDS011;5802;52.832;4.758;2024-02-21T10:18:31;3.78;;;1.67;;
11490;SDS011;5802;52.832;4.758;2024-02-21T10:21:03;2.95;;;1.60;;
11490;SDS011;5802;52.832;4.758;2024-02-21T10:23:44;6.47;;;2.15;;
11490;SDS011;5802;52.832;4.758;2024-02-21T10:26:11;2.38;;;1.80;;
11490;SDS011;5802;52.832;4.758;2024-02-21T10:28:37;5.57;;;1.80;;
11490;SDS011;5802;52.832;4.758;2024-02-21T10:31:07;4.53;;;1.80;;
11490;SDS011;5802;52.832;4.758;2024-02-21T10:33:34;6.05;;;1.73;;
11490;SDS011;5802;52.832;4.758;2024-02-21T10:36:09;2.92;;;1.77;;
11490;SDS011;5802;52.832;4.758;2024-02-21T10:38:37;3.50;;;1.90;;
11490;SDS011;5802;52.832;4.758;2024-02-21T10:41:04;3.22;;;1.75;;
11490;SDS011;5802;52.832;4.758;2024-02-21T10:43:40;4.22;;;1.77;;
11490;SDS011;5802;52.832;4.758;2024-02-21T10:46:07;3.20;;;2.22;;
11490;SDS011;5802;52.832;4.758;2024-02-21T10:48:38;9.77;;;6.07;;
11490;SDS011;5802;52.832;4.758;2024-02-21T10:51:14;13.02;;;6.90;;
11490;SDS011;5802;52.832;4.758;2024-02-21T10:53:44;9.35;;;6.15;;
11490;SDS011;5802;52.832;4.758;2024-02-21T10:56:16;8.63;;;5.50;;
11490;SDS011;5802;52.832;4.758;2024-02-21T10:58:48;5.28;;;4.50;;
11490;SDS011;5802;52.832;4.758;2024-02-21T11:01:16;6.22;;;4.38;;
11490;SDS011;5802;52.832;4.758;2024-02-21T11:03:45;5.53;;;4.10;;
11490;SDS011;5802;52.832;4.758;2024-02-21T11:06:14;4.65;;;3.90;;
11490;SDS011;5802;52.832;4.758;2024-02-21T11:08:43;6.82;;;3.65;;
11490;SDS011;5802;52.832;4.758;2024-02-21T11:11:11;8.35;;;4.05;;
11490;SDS011;5802;52.832;4.758;2024-02-21T11:13:42;8.13;;;3.83;;
11490;SDS011;5802;52.832;4.758;2024-02-21T11:16:11;6.82;;;3.50;;
11490;SDS011;5802;52.832;4.758;2024-02-21T11:18:47;6.15;;;3.33;;
11490;SDS011;5802;52.832;4.758;2024-02-21T11:21:15;5.63;;;3.20;;
11490;SDS011;5802;52.832;4.758;2024-02-21T11:23:42;9.63;;;3.22;;
11490;SDS011;5802;52.832;4.758;2024-02-21T11:26:09;4.40;;;2.90;;
11490;SDS011;5802;52.832;4.758;2024-02-21T11:28:37;5.30;;;3.03;;
11490;SDS011;5802;52.832;4.758;2024-02-21T11:31:07;3.65;;;2.90;;
11490;SDS011;5802;52.832;4.758;2024-02-21T11:33:34;6.63;;;3.03;;
11490;SDS011;5802;52.832;4.758;2024-02-21T11:36:01;4.53;;;2.80;;
11490;SDS011;5802;52.832;4.758;2024-02-21T11:38:30;5.55;;;3.22;;
11490;SDS011;5802;52.832;4.758;2024-02-21T11:40:57;9.32;;;3.08;;
11490;SDS011;5802;52.832;4.758;2024-02-21T11:43:24;7.60;;;2.72;;
11490;SDS011;5802;52.832;4.758;2024-02-21T11:45:58;6.18;;;2.63;;
11490;SDS011;5802;52.832;4.758;2024-02-21T11:48:26;4.82;;;2.70;;
11490;SDS011;5802;52.832;4.758;2024-02-21T11:50:53;7.10;;;2.78;;
11490;SDS011;5802;52.832;4.758;2024-02-21T11:53:21;8.05;;;2.70;;
11490;SDS011;5802;52.832;4.758;2024-02-21T11:56:00;11.35;;;3.13;;
11490;SDS011;5802;52.832;4.758;2024-02-21T11:58:28;7.45;;;2.85;;
11490;SDS011;5802;52.832;4.758;2024-02-21T12:00:55;9.68;;;2.95;;
11490;SDS011;5802;52.832;4.758;2024-02-21T12:03:23;4.70;;;2.60;;
11490;SDS011;5802;52.832;4.758;2024-02-21T12:05:50;5.03;;;2.58;;
11490;SDS011;5802;52.832;4.758;2024-02-21T12:08:21;4.40;;;2.92;;
11490;SDS011;5802;52.832;4.758;2024-02-21T12:10:48;4.65;;;2.40;;
11490;SDS011;5802;52.832;4.758;2024-02-21T12:13:17;4.45;;;2.75;;
11490;SDS011;5802;52.832;4.758;2024-02-21T12:15:49;3.05;;;2.72;;
11490;SDS011;5802;52.832;4.758;2024-02-21T12:18:16;4.93;;;2.53;;
11490;SDS011;5802;52.832;4.758;2024-02-21T12:20:43;4.75;;;2.53;;
11490;SDS011;5802;52.832;4.758;2024-02-21T12:23:11;4.68;;;2.50;;
11490;SDS011;5802;52.832;4.758;2024-02-21T12:25:38;4.54;;;2.32;;
11490;SDS011;5802;52.832;4.758;2024-02-21T12:28:05;4.38;;;2.45;;
11490;SDS011;5802;52.832;4.758;2024-02-21T12:30:34;4.95;;;2.13;;
11490;SDS011;5802;52.832;4.758;2024-02-21T12:33:04;3.58;;;2.20;;
11490;SDS011;5802;52.832;4.758;2024-02-21T12:35:31;3.03;;;2.28;;
11490;SDS011;5802;52.832;4.758;2024-02-21T12:37:58;2.38;;;2.08;;
11490;SDS011;5802;52.832;4.758;2024-02-21T12:40:26;3.75;;;2.15;;
11490;SDS011;5802;52.832;4.758;2024-02-21T12:42:57;3.55;;;2.10;;
11490;SDS011;5802;52.832;4.758;2024-02-21T12:45:25;3.53;;;2.50;;
11490;SDS011;5802;52.832;4.758;2024-02-21T12:47:53;3.00;;;2.05;;
11490;SDS011;5802;52.832;4.758;2024-02-21T12:50:20;3.03;;;2.20;;
11490;SDS011;5802;52.832;4.758;2024-02-21T12:52:47;2.60;;;2.13;;
11490;SDS011;5802;52.832;4.758;2024-02-21T12:55:15;4.47;;;2.20;;
11490;SDS011;5802;52.832;4.758;2024-02-21T12:57:42;3.72;;;2.28;;
11490;SDS011;5802;52.832;4.758;2024-02-21T13:00:09;2.40;;;1.95;;
11490;SDS011;5802;52.832;4.758;2024-02-21T13:02:37;3.97;;;2.38;;
11490;SDS011;5802;52.832;4.758;2024-02-21T13:05:06;2.17;;;1.98;;
11490;SDS011;5802;52.832;4.758;2024-02-21T13:07:33;3.90;;;2.03;;
11490;SDS011;5802;52.832;4.758;2024-02-21T13:10:00;3.00;;;2.10;;
11490;SDS011;5802;52.832;4.758;2024-02-21T13:12:28;3.15;;;1.85;;
11490;SDS011;5802;52.832;4.758;2024-02-21T13:14:55;3.13;;;2.00;;
11490;SDS011;5802;52.832;4.758;2024-02-21T13:17:22;2.60;;;1.90;;
11490;SDS011;5802;52.832;4.758;2024-02-21T13:19:55;3.65;;;2.08;;
11490;SDS011;5802;52.832;4.758;2024-02-21T13:22:23;2.20;;;2.00;;
11490;SDS011;5802;52.832;4.758;2024-02-21T13:24:52;2.72;;;1.90;;
11490;SDS011;5802;52.832;4.758;2024-02-21T13:27:18;2.67;;;2.03;;
11490;SDS011;5802;52.832;4.758;2024-02-21T13:29:46;4.47;;;1.95;;
11490;SDS011;5802;52.832;4.758;2024-02-21T13:32:12;6.22;;;2.40;;
11490;SDS011;5802;52.832;4.758;2024-02-21T13:34:40;2.17;;;1.98;;
11490;SDS011;5802;52.832;4.758;2024-02-21T13:37:08;2.58;;;1.92;;
11490;SDS011;5802;52.832;4.758;2024-02-21T13:39:36;2.53;;;2.00;;
11490;SDS011;5802;52.832;4.758;2024-02-21T13:42:03;2.58;;;1.90;;
11490;SDS011;5802;52.832;4.758;2024-02-21T13:44:31;2.08;;;1.75;;
11490;SDS011;5802;52.832;4.758;2024-02-21T13:46:59;2.30;;;1.50;;
11490;SDS011;5802;52.832;4.758;2024-02-21T13:49:26;2.05;;;1.80;;
11490;SDS011;5802;52.832;4.758;2024-02-21T13:51:53;1.77;;;1.63;;
11490;SDS011;5802;52.832;4.758;2024-02-21T13:54:20;2.85;;;1.90;;
11490;SDS011;5802;52.832;4.758;2024-02-21T13:56:48;2.78;;;2.05;;
11490;SDS011;5802;52.832;4.758;2024-02-21T13:59:15;2.25;;;1.70;;
11490;SDS011;5802;52.832;4.758;2024-02-21T14:01:43;2.30;;;1.80;;
11490;SDS011;5802;52.832;4.758;2024-02-21T14:04:10;2.38;;;1.80;;
11490;SDS011;5802;52.832;4.758;2024-02-21T14:06:37;1.92;;;1.60;;
11490;SDS011;5802;52.832;4.758;2024-02-21T14:09:08;1.83;;;1.60;;
11490;SDS011;5802;52.832;4.758;2024-02-21T14:11:35;1.70;;;1.45;;
11490;SDS011;5802;52.832;4.758;2024-02-21T14:14:04;2.13;;;1.85;;
11490;SDS011;5802;52.832;4.758;2024-02-21T14:16:31;2.80;;;1.73;;
11490;SDS011;5802;52.832;4.758;2024-02-21T14:18:58;1.70;;;1.60;;
11490;SDS011;5802;52.832;4.758;2024-02-21T14:21:25;1.90;;;1.70;;
11490;SDS011;5802;52.832;4.758;2024-02-21T14:23:53;1.75;;;1.65;;
11490;SDS011;5802;52.832;4.758;2024-02-21T14:26:21;2.17;;;1.50;;
11490;SDS011;5802;52.832;4.758;2024-02-21T14:28:48;1.83;;;1.65;;
11490;SDS011;5802;52.832;4.758;2024-02-21T14:31:16;3.30;;;1.50;;
11490;SDS011;5802;52.832;4.758;2024-02-21T14:33:43;1.95;;;1.40;;
11490;SDS011;5802;52.832;4.758;2024-02-21T14:36:11;1.40;;;1.30;;
11490;SDS011;5802;52.832;4.758;2024-02-21T14:38:38;2.00;;;1.50;;
11490;SDS011;5802;52.832;4.758;2024-02-21T14:41:06;1.55;;;1.30;;
11490;SDS011;5802;52.832;4.758;2024-02-21T14:43:33;1.70;;;1.40;;
11490;SDS011;5802;52.832;4.758;2024-02-21T14:46:00;2.63;;;1.40;;
11490;SDS011;5802;52.832;4.758;2024-02-21T14:48:30;2.50;;;1.50;;
11490;SDS011;5802;52.832;4.758;2024-02-21T14:50:58;1.80;;;1.40;;
11490;SDS011;5802;52.832;4.758;2024-02-21T14:53:25;1.70;;;1.40;;
11490;SDS011;5802;52.832;4.758;2024-02-21T14:55:51;2.88;;;1.70;;
11490;SDS011;5802;52.832;4.758;2024-02-21T14:58:18;2.08;;;1.42;;
11490;SDS011;5802;52.832;4.758;2024-02-21T15:00:45;2.83;;;1.73;;
11490;SDS011;5802;52.832;4.758;2024-02-21T15:03:12;1.80;;;1.50;;